RPi & Temperatures at JO21ut

Last graph updates: Saturday 22 February 2020 23:02 CET

Sunrise: 07:36 & Sunset: 18:04 The Sun is currently not visible. [-44.58 degrees] and 148005689 Km from the Earth
Moonrise: 7:38 & Moonset: 16:38 New Moon The Moon is 400831 Km from the Earth
Find here more details on MARS.

23:21:51 up 7 days, 6:09, 0 users, load average: 1.17, 1.04, 0.95
Current CPU frequency is: 1000 Mhz
Current GPU temperature: 29.324°C
Current inside temperature is 18.3°C with a humidity of 73.4%
Second inside temperature is 18.4°C with a pressure of 1015.98 Hpa (29.77 inHg) and an uncorrected altitude of -22.87 m
ds18b20 now showing 18.3°C

All the sensors I use, DHT22 | BMP085 | MPU6050 | BH1750FVI | MMA7455 | HMC5883L | MPL3115A2 | DS1307 | HTU21 | AM2321 | DS3231 | INA219 | LM75A , and it's current readout can be viewed here please be patient as it needs to read all sensors data. The page loads after about 10 seconds. In our forum more details can be found such as the used software/sources. Feel free to add yours also..


Pressure BMP085
Pressure BMP085
Pressure BMP085
Pressure BMP085
PI CPU Temp
Inet Volkel temp
Inside temp BMP085
Humidity BMP085
PI CPU Temp
Inet Volkel temp
Inside temp BMP085
Humidity BMP085
PI CPU Temp
Inet Volkel temp
Inside temp BMP085
Humidity BMP085
PI CPU Temp
Inet Volkel temp
Inside temp BMP085
Humidity BMP085
PI CPU Temp
Inet Volkel temp
Inside temp BMP085
Humidity BMP085
Inside light BH1750FV
Inside light BH1750FV
Inside light BH1750FV
Inside light BH1750FV
Inside light BH1750FV
Inside light BH1750FV
Sunlight hours
 

Sun & Moon position graph 
Created with jpgraph 4.2.11


Wijchen weather

Weer Widget
ScreenSaver yr.no

Sun Moon Earth


EHEH 222216Z AUTO 24014KT 220V280 7000 -SHRA -DZ FEW009 SCT012 BKN016 09/08 Q1021 GRN EHEH 222216Z AUTO 24014KT 220V280 7000 -SHRA -DZ FEW009 SCT012 BKN016 09/08 Q1021 GRN EHEH 222216Z AUTO 24014KT 220V280 7000 -SHRA -DZ FEW009 SCT012 BKN016 09/08 Q1021 GRN

Weather data from Volkel [NL] EHVK


6 minutes ago, at 22:16 UTC, the wind was calm in Volkel [EHVK], Netherlands. The temperature was 9 °C (48 °F) with a dewpoint of 8 °C (46 °F), and the pressure was 1,021 hPa (30.15 inHg). The relative humidity was 93.4%. There were a few clouds at a height of 274 meter (900 feet), scattered clouds at a height of 366 meter (1200 feet) and broken clouds at a height of 488 meter (1600 feet). The visibility was 7.0 kilometers (4.3 miles). Current weather is Light Shower(s) Rain Light Drizzle .




View code:

Contact me  |  My Raspberry PI forum